Time;durP1;ratioP1;P1;durP2;ratioP2;P2;SDS_P1;SDS_P2;PMS_P1;PMS_P2;Temp;Humidity;BMP_temperature;BMP_pressure;BME280_temperature;BME280_humidity;BME280_pressure;Samples;Min_cycle;Max_cycle;Signal;HPM_P1;HPM_P2
2023/04/01 00:00:20;;;;;;;4.65;1.30;;;10.90;99.90;;;;;;5094804;28;20069;-76
2023/04/01 00:02:47;;;;;;;4.95;1.45;;;10.90;99.90;;;;;;5076735;28;20392;-75
2023/04/01 00:05:13;;;;;;;6.28;1.25;;;11.00;99.90;;;;;;5094392;28;20028;-76
2023/04/01 00:07:39;;;;;;;4.80;1.25;;;11.00;99.90;;;;;;5094484;28;20024;-76
2023/04/01 00:10:07;;;;;;;7.35;1.23;;;10.90;99.90;;;;;;5059564;28;20487;-76
2023/04/01 00:12:33;;;;;;;7.45;1.33;;;10.90;99.90;;;;;;5076023;28;20088;-76
2023/04/01 00:15:00;;;;;;;5.07;1.25;;;10.90;99.90;;;;;;5093928;28;20028;-76
2023/04/01 00:17:25;;;;;;;5.43;1.08;;;10.90;99.90;;;;;;5094251;28;20107;-76
2023/04/01 00:19:51;;;;;;;4.43;1.10;;;10.90;99.90;;;;;;5076531;28;20105;-76
2023/04/01 00:22:17;;;;;;;5.82;1.52;;;10.90;99.90;;;;;;5093934;28;20034;-76
2023/04/01 00:24:43;;;;;;;5.28;1.30;;;10.90;99.90;;;;;;5076050;28;20032;-76
2023/04/01 00:27:08;;;;;;;4.45;1.40;;;10.90;99.90;;;;;;5042328;28;20364;-77
2023/04/01 00:29:34;;;;;;;5.32;1.55;;;10.90;99.90;;;;;;5094249;28;20040;-77
2023/04/01 00:32:00;;;;;;;4.45;1.83;;;10.90;99.90;;;;;;5075811;28;20521;-76
2023/04/01 00:34:26;;;;;;;3.80;1.70;;;10.90;99.90;;;;;;5075549;28;20062;-76
2023/04/01 00:36:53;;;;;;;5.13;1.90;;;10.90;99.90;;;;;;5094633;28;20079;-76
2023/04/01 00:39:21;;;;;;;4.38;2.05;;;11.00;99.90;;;;;;5059905;28;20349;-76
2023/04/01 00:41:47;;;;;;;5.10;2.20;;;11.00;99.90;;;;;;5075801;28;20032;-76
2023/04/01 00:44:29;;;;;;;5.55;3.05;;;11.00;99.90;;;;;;5075895;28;20078;-75
2023/04/01 00:46:55;;;;;;;5.18;2.53;;;11.00;99.90;;;;;;5076277;28;20032;-76
2023/04/01 00:49:26;;;;;;;4.88;2.70;;;11.00;99.90;;;;;;5075959;28;20081;-75
2023/04/01 00:51:55;;;;;;;6.15;3.85;;;11.00;99.90;;;;;;5094181;28;20085;-75
2023/04/01 00:54:23;;;;;;;4.90;3.75;;;11.00;99.90;;;;;;5093837;28;20032;-76
2023/04/01 00:56:56;;;;;;;6.15;4.20;;;11.00;99.90;;;;;;5075610;28;20432;-76
2023/04/01 00:59:34;;;;;;;7.55;4.35;;;11.10;99.90;;;;;;5076047;28;20024;-75
2023/04/01 01:02:02;;;;;;;6.82;4.47;;;11.00;99.90;;;;;;5093892;28;20053;-76
2023/04/01 01:04:30;;;;;;;10.98;6.20;;;11.10;99.90;;;;;;5093655;28;20040;-75
2023/04/01 01:07:10;;;;;;;8.95;6.65;;;11.10;99.90;;;;;;5075849;28;20483;-75
2023/04/01 01:09:48;;;;;;;12.85;7.90;;;11.00;99.90;;;;;;5075752;28;20031;-75
2023/04/01 01:12:20;;;;;;;11.55;7.38;;;11.10;99.90;;;;;;5075499;28;20157;-75
2023/04/01 01:15:05;;;;;;;12.80;8.13;;;11.00;99.90;;;;;;5075298;28;20028;-76
2023/04/01 01:18:01;;;;;;;11.02;9.10;;;11.10;99.90;;;;;;5093581;28;20250;-75
2023/04/01 01:20:57;;;;;;;11.35;8.85;;;11.10;99.90;;;;;;5093810;28;20095;-75
2023/04/01 01:24:03;;;;;;;13.32;9.10;;;11.00;99.90;;;;;;5075047;28;20077;-75
2023/04/01 01:27:03;;;;;;;14.15;10.40;;;11.10;99.90;;;;;;5075304;28;20030;-75
2023/04/01 01:29:37;;;;;;;13.20;10.00;;;11.00;99.90;;;;;;5093447;28;20020;-76
2023/04/01 01:32:14;;;;;;;13.48;11.02;;;11.00;99.90;;;;;;5076177;28;20028;-76
2023/04/01 01:34:40;;;;;;;16.05;10.43;;;11.00;99.90;;;;;;5075173;28;20053;-76
2023/04/01 01:37:13;;;;;;;14.48;11.27;;;11.10;99.90;;;;;;5093445;28;20127;-76
2023/04/01 01:39:40;;;;;;;18.02;11.02;;;11.10;99.90;;;;;;5078514;28;20456;-75
2023/04/01 01:42:09;;;;;;;17.08;11.27;;;11.10;99.90;;;;;;5079279;28;20052;-76
2023/04/01 01:44:37;;;;;;;14.50;11.35;;;11.10;99.90;;;;;;5078998;28;20081;-75
2023/04/01 01:47:03;;;;;;;14.88;11.05;;;11.10;99.90;;;;;;5097197;28;20031;-75
2023/04/01 01:49:32;;;;;;;16.95;12.07;;;11.10;99.90;;;;;;5062609;28;20031;-76
2023/04/01 01:51:57;;;;;;;15.70;11.50;;;11.10;99.90;;;;;;5097124;28;20024;-75
2023/04/01 01:54:23;;;;;;;15.23;11.10;;;11.10;99.90;;;;;;5078750;28;20051;-75
2023/04/01 01:56:55;;;;;;;16.15;10.93;;;11.10;99.90;;;;;;5062207;28;20101;-75
2023/04/01 01:59:22;;;;;;;10.13;8.47;;;11.10;99.90;;;;;;5079680;28;20054;-75
2023/04/01 02:01:53;;;;;;;11.52;7.93;;;11.10;99.90;;;;;;5078979;28;20024;-75
2023/04/01 02:04:20;;;;;;;11.05;7.75;;;11.00;99.90;;;;;;5097223;28;20580;-75
2023/04/01 02:07:23;;;;;;;16.23;8.07;;;10.90;99.90;;;;;;5078552;28;20032;-75
2023/04/01 02:09:50;;;;;;;15.45;6.47;;;10.90;99.90;;;;;;4997180;28;20126;-76
2023/04/01 02:12:18;;;;;;;17.98;7.72;;;10.90;99.90;;;;;;5062535;28;20477;-75
2023/04/01 02:14:56;;;;;;;19.05;7.30;;;10.90;99.90;;;;;;5078494;28;20070;-75
2023/04/01 02:17:26;;;;;;;19.13;6.88;;;10.90;99.90;;;;;;5096704;28;20074;-75
2023/04/01 02:20:07;;;;;;;21.67;7.00;;;10.90;99.90;;;;;;5096644;28;20092;-74
2023/04/01 02:22:41;;;;;;;19.20;6.43;;;10.80;99.90;;;;;;5078890;28;20028;-74
2023/04/01 02:25:12;;;;;;;15.10;5.75;;;10.90;99.90;;;;;;5096537;28;20024;-75
2023/04/01 02:27:39;;;;;;;15.30;5.45;;;10.80;99.90;;;;;;5097162;28;20031;-75
2023/04/01 02:30:06;;;;;;;15.63;5.43;;;10.90;99.90;;;;;;5078256;28;20052;-76
2023/04/01 02:32:33;;;;;;;12.68;6.68;;;10.90;99.90;;;;;;5078152;28;20468;-75
2023/04/01 02:35:03;;;;;;;14.65;6.80;;;10.90;99.90;;;;;;5077821;28;20028;-75
2023/04/01 02:37:28;;;;;;;14.27;5.57;;;10.90;99.90;;;;;;5078590;28;20039;-76
2023/04/01 02:39:54;;;;;;;13.35;6.35;;;10.90;99.90;;;;;;5045548;28;20029;-75
2023/04/01 02:42:20;;;;;;;15.02;6.03;;;11.00;99.90;;;;;;5077895;28;20028;-74
2023/04/01 02:44:45;;;;;;;16.58;5.95;;;11.00;99.90;;;;;;5077549;28;20127;-74
2023/04/01 02:47:11;;;;;;;17.70;6.10;;;11.00;99.90;;;;;;5062201;28;20119;-75
2023/04/01 02:49:37;;;;;;;13.55;6.43;;;11.00;99.90;;;;;;5076795;28;20078;-75
2023/04/01 02:52:03;;;;;;;14.45;5.40;;;11.00;99.90;;;;;;5077289;28;20035;-74
2023/04/01 02:54:28;;;;;;;15.45;5.18;;;11.00;99.90;;;;;;5077853;28;20036;-75
2023/04/01 02:56:54;;;;;;;11.18;4.75;;;11.00;99.90;;;;;;5060944;28;20131;-75
2023/04/01 02:59:20;;;;;;;8.30;4.80;;;10.90;99.90;;;;;;5078392;28;20032;-74
2023/04/01 03:01:46;;;;;;;12.02;5.63;;;10.90;99.90;;;;;;5060918;28;20035;-76
2023/04/01 03:04:11;;;;;;;9.20;4.95;;;10.90;99.90;;;;;;5044785;28;20110;-76
2023/04/01 03:06:37;;;;;;;9.52;5.15;;;10.90;99.90;;;;;;5095404;28;20529;-75
2023/04/01 03:09:03;;;;;;;9.23;5.43;;;10.90;99.90;;;;;;5077228;28;20052;-76
2023/04/01 03:11:28;;;;;;;11.95;6.05;;;10.90;99.90;;;;;;5060876;28;20135;-76
2023/04/01 03:13:54;;;;;;;7.28;5.28;;;10.90;99.90;;;;;;5060624;28;20032;-76
2023/04/01 03:16:20;;;;;;;6.60;4.93;;;10.90;99.90;;;;;;5060745;28;20126;-75
2023/04/01 03:18:45;;;;;;;7.15;4.60;;;10.90;99.90;;;;;;5077584;28;20039;-75
2023/04/01 03:21:22;;;;;;;6.05;4.55;;;10.90;99.90;;;;;;5043931;28;20057;-75
2023/04/01 03:23:48;;;;;;;8.32;4.07;;;10.90;99.90;;;;;;5095989;28;20036;-75
2023/04/01 03:26:14;;;;;;;4.93;4.00;;;10.80;99.90;;;;;;5060564;28;20039;-75
2023/04/01 03:28:40;;;;;;;5.00;4.20;;;10.80;99.90;;;;;;5077033;28;20028;-76
2023/04/01 03:31:06;;;;;;;6.07;5.00;;;10.90;99.90;;;;;;5076855;28;20115;-76
2023/04/01 03:33:32;;;;;;;5.38;4.80;;;10.80;99.90;;;;;;5094840;28;20028;-75
2023/04/01 03:35:58;;;;;;;5.15;4.63;;;10.80;99.90;;;;;;5095049;28;20052;-75
2023/04/01 03:38:24;;;;;;;7.88;5.07;;;10.70;99.90;;;;;;5095103;28;20356;-75
2023/04/01 03:40:49;;;;;;;6.28;5.30;;;10.70;99.90;;;;;;5076654;28;20054;-75
2023/04/01 03:43:16;;;;;;;7.53;5.68;;;10.80;99.90;;;;;;5060529;28;20031;-76
2023/04/01 03:45:46;;;;;;;6.22;5.53;;;10.80;99.90;;;;;;5060765;28;20032;-76
2023/04/01 03:48:13;;;;;;;6.80;5.72;;;10.80;99.90;;;;;;5076693;28;20054;-76
2023/04/01 03:50:39;;;;;;;7.45;5.75;;;10.80;99.90;;;;;;5094823;28;20067;-75
2023/04/01 03:53:05;;;;;;;6.97;5.55;;;10.80;99.90;;;;;;5059563;28;20066;-76
2023/04/01 03:55:31;;;;;;;7.78;5.57;;;10.80;99.90;;;;;;5059699;28;20472;-76
2023/04/01 03:57:56;;;;;;;7.40;5.68;;;10.80;99.90;;;;;;5076492;28;20039;-75
2023/04/01 04:00:22;;;;;;;6.75;5.95;;;10.80;99.90;;;;;;5094416;28;20492;-75
2023/04/01 04:02:47;;;;;;;6.47;5.50;;;10.70;99.90;;;;;;5059577;28;20028;-75
2023/04/01 04:05:14;;;;;;;6.32;5.57;;;10.70;99.90;;;;;;5076434;28;20055;-75
2023/04/01 04:07:39;;;;;;;8.38;5.45;;;10.70;99.90;;;;;;5059543;28;20108;-75
2023/04/01 04:10:06;;;;;;;8.32;6.25;;;10.70;99.90;;;;;;5076174;28;20455;-76
2023/04/01 04:12:32;;;;;;;9.05;6.15;;;10.70;99.90;;;;;;5043953;28;20032;-75
2023/04/01 04:14:57;;;;;;;9.10;6.25;;;10.70;99.90;;;;;;5076573;28;20046;-75
2023/04/01 04:17:23;;;;;;;9.90;6.80;;;10.70;99.90;;;;;;5094018;28;20032;-76
2023/04/01 04:19:49;;;;;;;8.48;7.10;;;10.70;99.90;;;;;;5094510;28;20028;-75
2023/04/01 04:22:14;;;;;;;9.43;7.43;;;10.70;99.90;;;;;;5042989;28;20529;-74
2023/04/01 04:24:40;;;;;;;9.02;7.10;;;10.60;99.90;;;;;;5076063;28;20496;-74
2023/04/01 04:27:06;;;;;;;10.75;7.70;;;10.60;99.90;;;;;;5076027;28;20089;-74
2023/04/01 04:29:31;;;;;;;8.10;7.30;;;10.70;99.90;;;;;;5042758;28;20028;-77
2023/04/01 04:31:57;;;;;;;11.80;8.00;;;10.70;99.90;;;;;;5075899;28;20029;-75
2023/04/01 04:34:23;;;;;;;9.20;8.13;;;10.70;99.90;;;;;;5075781;28;20381;-75
2023/04/01 04:36:49;;;;;;;12.18;8.55;;;10.60;99.90;;;;;;5093579;28;20071;-74
2023/04/01 04:39:15;;;;;;;10.90;8.25;;;10.60;99.90;;;;;;5076201;28;20028;-75
2023/04/01 04:41:41;;;;;;;10.27;8.27;;;10.60;99.90;;;;;;5075715;28;20032;-75
2023/04/01 04:44:07;;;;;;;11.00;8.98;;;10.70;99.90;;;;;;5093498;28;20028;-76
2023/04/01 04:46:33;;;;;;;11.80;7.55;;;10.60;99.90;;;;;;5075709;28;20028;-75
2023/04/01 04:48:59;;;;;;;10.23;8.30;;;10.60;99.90;;;;;;5058685;28;20035;-76
2023/04/01 04:51:25;;;;;;;11.48;7.82;;;10.60;99.90;;;;;;5058830;28;20032;-75
2023/04/01 04:53:51;;;;;;;11.43;8.05;;;10.60;99.90;;;;;;5075434;28;20391;-76
2023/04/01 04:56:22;;;;;;;9.77;7.75;;;10.60;99.90;;;;;;5075569;28;20024;-77
2023/04/01 04:58:48;;;;;;;9.57;7.70;;;10.60;99.90;;;;;;5093569;28;20101;-76
2023/04/01 05:01:16;;;;;;;11.50;8.52;;;10.70;99.90;;;;;;5093271;28;20072;-76
2023/04/01 05:03:42;;;;;;;9.63;8.63;;;10.70;99.90;;;;;;5093256;28;20032;-76
2023/04/01 05:06:09;;;;;;;10.57;9.23;;;10.70;99.90;;;;;;5075936;28;20024;-77
2023/04/01 05:08:35;;;;;;;11.18;9.50;;;10.70;99.90;;;;;;5075784;28;20102;-76
2023/04/01 05:11:01;;;;;;;10.05;9.02;;;10.70;99.90;;;;;;5093820;28;20020;-76
2023/04/01 05:13:28;;;;;;;11.85;9.48;;;10.80;99.90;;;;;;5076482;28;20047;-76
2023/04/01 05:15:54;;;;;;;10.00;9.00;;;10.80;99.90;;;;;;5079597;28;20028;-77
2023/04/01 05:18:21;;;;;;;9.30;8.30;;;10.80;99.90;;;;;;5097497;28;20025;-75
2023/04/01 05:20:51;;;;;;;9.52;8.57;;;10.80;99.90;;;;;;5079540;28;20145;-75
2023/04/01 05:23:17;;;;;;;9.95;8.52;;;10.80;99.90;;;;;;5079427;28;20020;-76
2023/04/01 05:25:44;;;;;;;9.13;8.18;;;10.80;99.90;;;;;;5097872;28;20095;-77
2023/04/01 05:28:10;;;;;;;8.80;7.50;;;10.90;99.90;;;;;;5079864;28;20025;-75
2023/04/01 05:30:36;;;;;;;9.35;7.65;;;10.90;99.90;;;;;;5079575;28;20032;-76
2023/04/01 05:33:02;;;;;;;8.38;6.88;;;10.90;99.90;;;;;;5079235;28;20460;-77
2023/04/01 05:35:28;;;;;;;8.00;6.55;;;10.90;99.90;;;;;;5096941;28;20048;-76
2023/04/01 05:37:54;;;;;;;6.03;5.43;;;10.90;99.90;;;;;;5045885;28;20468;-76
2023/04/01 05:40:20;;;;;;;6.93;5.10;;;11.00;99.90;;;;;;5062160;28;20111;-76
2023/04/01 05:42:45;;;;;;;5.20;4.70;;;10.90;99.90;;;;;;5078988;28;20065;-76
2023/04/01 05:45:11;;;;;;;5.47;4.97;;;11.00;99.90;;;;;;5096888;28;20032;-76
2023/04/01 05:47:37;;;;;;;4.63;4.10;;;11.00;99.90;;;;;;5062374;28;20036;-76
2023/04/01 05:50:03;;;;;;;5.65;5.15;;;11.00;99.90;;;;;;5079257;28;20376;-75
2023/04/01 05:52:28;;;;;;;5.78;4.68;;;11.00;99.90;;;;;;5096807;28;20464;-75
2023/04/01 05:54:54;;;;;;;6.53;5.43;;;11.00;99.90;;;;;;5062441;28;20107;-75
2023/04/01 05:57:20;;;;;;;6.50;5.03;;;11.10;99.90;;;;;;5078961;28;20059;-76
2023/04/01 05:59:46;;;;;;;8.68;6.63;;;11.00;99.90;;;;;;5078930;28;20052;-76
2023/04/01 06:02:12;;;;;;;9.95;7.30;;;11.10;99.90;;;;;;5062447;28;20077;-76
2023/04/01 06:04:40;;;;;;;11.45;8.68;;;11.00;99.90;;;;;;5061936;28;20036;-76
2023/04/01 06:07:11;;;;;;;12.00;8.38;;;11.00;99.90;;;;;;5078807;28;20058;-75
2023/04/01 06:09:37;;;;;;;11.35;8.30;;;11.00;99.90;;;;;;5062356;28;20461;-76
2023/04/01 06:12:13;;;;;;;14.20;9.88;;;11.00;99.90;;;;;;5061850;28;20062;-76
2023/04/01 06:14:55;;;;;;;16.60;10.18;;;11.00;99.90;;;;;;5078332;28;20032;-76
2023/04/01 06:18:07;;;;;;;19.40;12.02;;;11.10;99.90;;;;;;5078729;28;20055;-76
2023/04/01 06:21:20;;;;;;;17.58;11.43;;;11.10;99.90;;;;;;5060801;28;20540;-76
2023/04/01 06:24:05;;;;;;;17.50;11.20;;;11.10;99.90;;;;;;5096458;28;20039;-76
2023/04/01 06:26:42;;;;;;;17.55;11.18;;;11.20;99.90;;;;;;5078830;28;20020;-76
2023/04/01 06:29:40;;;;;;;19.55;12.10;;;11.20;99.90;;;;;;5096443;28;20032;-76
2023/04/01 06:32:14;;;;;;;19.25;11.13;;;11.20;99.90;;;;;;5096105;28;20023;-77
2023/04/01 06:35:17;;;;;;;16.05;10.60;;;11.20;99.90;;;;;;5096207;28;20036;-76
2023/04/01 06:38:04;;;;;;;19.58;11.38;;;11.20;99.90;;;;;;5096237;28;20044;-76
2023/04/01 06:40:41;;;;;;;20.65;11.77;;;11.20;99.90;;;;;;5078497;28;20028;-76
2023/04/01 06:43:27;;;;;;;20.17;11.23;;;11.20;99.90;;;;;;5096395;28;20103;-79
2023/04/01 06:46:19;;;;;;;17.85;9.57;;;11.20;99.90;;;;;;5096088;28;20120;-77
2023/04/01 06:49:21;;;;;;;17.95;9.98;;;11.20;99.90;;;;;;5096145;28;20028;-77
2023/04/01 06:52:02;;;;;;;15.52;9.13;;;11.20;99.90;;;;;;5096163;28;20027;-77
2023/04/01 06:54:38;;;;;;;12.13;8.10;;;11.30;99.90;;;;;;5077491;28;20035;-80
2023/04/01 06:57:24;;;;;;;9.35;6.07;;;11.30;99.90;;;;;;5095977;28;20111;-77
2023/04/01 06:59:51;;;;;;;9.57;6.40;;;11.30;99.90;;;;;;5096228;28;20032;-77
2023/04/01 07:02:34;;;;;;;8.63;5.30;;;11.40;99.90;;;;;;5061888;28;20028;-77
2023/04/01 07:05:01;;;;;;;8.40;5.13;;;11.40;99.90;;;;;;5095987;28;20024;-77
2023/04/01 07:07:27;;;;;;;8.07;5.10;;;11.40;99.90;;;;;;5077596;28;20035;-77
2023/04/01 07:09:58;;;;;;;6.72;4.43;;;11.50;99.90;;;;;;5096005;28;20457;-77
2023/04/01 07:12:30;;;;;;;7.15;4.47;;;11.50;99.90;;;;;;5095649;28;20024;-76
2023/04/01 07:15:00;;;;;;;5.20;3.53;;;11.60;99.90;;;;;;5078059;28;20480;-77
2023/04/01 07:17:30;;;;;;;4.68;3.22;;;11.60;99.90;;;;;;5077327;28;20025;-74
2023/04/01 07:20:06;;;;;;;6.47;2.35;;;11.60;99.90;;;;;;5077183;28;20375;-76
2023/04/01 07:22:48;;;;;;;6.70;4.03;;;11.70;99.90;;;;;;5095766;28;20410;-73
2023/04/01 07:25:25;;;;;;;4.45;2.63;;;11.80;99.90;;;;;;5095991;28;20020;-78
2023/04/01 07:27:59;;;;;;;3.95;2.00;;;11.80;99.90;;;;;;5095311;28;20023;-79
2023/04/01 07:30:28;;;;;;;3.65;2.67;;;11.90;99.90;;;;;;5077713;28;20028;-76
2023/04/01 07:33:19;;;;;;;3.25;2.33;;;12.00;99.90;;;;;;5095228;28;20031;-75
2023/04/01 07:36:14;;;;;;;3.22;2.05;;;12.10;99.90;;;;;;5094489;28;20123;-77
2023/04/01 07:39:11;;;;;;;2.33;1.77;;;12.00;99.90;;;;;;5065844;28;20043;-77
2023/04/01 07:41:59;;;;;;;2.03;1.75;;;12.10;99.90;;;;;;5095133;28;20103;-76
2023/04/01 07:44:55;;;;;;;2.15;1.33;;;12.10;99.90;;;;;;5094735;28;20489;-76
2023/04/01 07:47:45;;;;;;;1.40;1.00;;;12.10;99.90;;;;;;5095223;28;20060;-80
2023/04/01 07:50:19;;;;;;;1.25;0.60;;;12.10;99.90;;;;;;5095169;28;20046;-75
2023/04/01 07:52:48;;;;;;;1.13;0.73;;;12.20;99.90;;;;;;5094915;28;20074;-75
2023/04/01 07:55:16;;;;;;;1.60;0.60;;;12.20;99.90;;;;;;5094676;28;20040;-77
2023/04/01 07:58:17;;;;;;;1.00;0.60;;;12.20;99.90;;;;;;5095277;28;20027;-76
2023/04/01 08:01:01;;;;;;;1.15;0.60;;;12.20;99.90;;;;;;5074005;28;20058;-77
2023/04/01 08:03:32;;;;;;;1.45;0.50;;;12.20;99.90;;;;;;5094676;28;20028;-77
2023/04/01 08:05:58;;;;;;;1.20;0.98;;;12.20;99.90;;;;;;5094572;28;20074;-77
2023/04/01 08:09:11;;;;;;;1.50;0.90;;;12.20;99.90;;;;;;5094495;28;20468;-77
2023/04/01 08:12:11;;;;;;;1.70;1.35;;;12.20;99.90;;;;;;5038691;28;20109;-75
2023/04/01 08:15:00;;;;;;;2.42;1.70;;;12.10;99.90;;;;;;5094161;28;20032;-77
2023/04/01 08:17:40;;;;;;;1.58;1.27;;;12.10;99.90;;;;;;5076983;28;20020;-77
2023/04/01 08:20:33;;;;;;;2.83;1.83;;;12.10;99.90;;;;;;5076620;28;20036;-75
2023/04/01 08:23:13;;;;;;;;;;;12.10;99.90;;;;;;5094381;28;20032;-76
2023/04/01 08:26:06;;;;;;;2.28;1.08;;;12.10;99.90;;;;;;5094493;28;19904;-76
2023/04/01 08:28:55;;;;;;;1.45;1.02;;;12.20;99.90;;;;;;5094590;28;20115;-76
2023/04/01 08:31:37;;;;;;;1.15;0.60;;;12.20;99.90;;;;;;5076748;28;20035;-76
2023/04/01 08:34:08;;;;;;;0.60;0.30;;;12.20;99.90;;;;;;5093861;28;20392;-75
2023/04/01 08:36:40;;;;;;;0.73;0.32;;;12.20;99.90;;;;;;5094132;28;20052;-76
2023/04/01 08:39:27;;;;;;;0.50;0.20;;;12.20;99.90;;;;;;5076111;28;20555;-75
2023/04/01 08:42:31;;;;;;;0.10;0.00;;;12.30;99.90;;;;;;5075617;28;20028;-78
2023/04/01 08:45:18;;;;;;;0.30;0.20;;;12.20;99.90;;;;;;5094087;28;20434;-78
2023/04/01 08:47:53;;;;;;;1.00;0.55;;;12.20;99.90;;;;;;5092608;28;20042;-79
2023/04/01 08:50:23;;;;;;;0.40;0.10;;;12.20;99.90;;;;;;5092025;28;20102;-78
2023/04/01 08:52:51;;;;;;;0.63;0.10;;;12.20;99.90;;;;;;5076178;28;20028;-77
2023/04/01 08:55:26;;;;;;;1.25;0.10;;;12.30;99.90;;;;;;5093933;28;20036;-76
2023/04/01 08:58:01;;;;;;;0.70;0.20;;;12.30;99.90;;;;;;5094321;28;20028;-77
2023/04/01 09:00:43;;;;;;;0.40;0.20;;;12.30;99.90;;;;;;5076421;28;20028;-77
2023/04/01 09:03:21;;;;;;;1.60;0.13;;;12.30;99.90;;;;;;5076355;28;20020;-82
2023/04/01 09:06:22;;;;;;;0.75;0.10;;;12.30;99.90;;;;;;5075753;28;20024;-74
2023/04/01 09:09:26;;;;;;;0.57;0.20;;;12.30;99.90;;;;;;5093749;28;20104;-74
2023/04/01 09:11:54;;;;;;;0.35;0.30;;;12.20;99.90;;;;;;5093829;28;20020;-76
2023/04/01 09:14:46;;;;;;;1.10;0.20;;;12.20;99.90;;;;;;5093362;28;20032;-75
2023/04/01 09:17:30;;;;;;;1.00;0.25;;;12.30;99.90;;;;;;5044932;28;20483;-76
2023/04/01 09:19:58;;;;;;;1.65;0.20;;;12.30;99.90;;;;;;5075236;28;20027;-75
2023/04/01 09:22:50;;;;;;;1.15;0.20;;;12.40;99.90;;;;;;5075424;28;20111;-75
2023/04/01 09:25:28;;;;;;;1.08;0.50;;;12.40;99.90;;;;;;5093600;28;20036;-76
2023/04/01 09:28:17;;;;;;;1.60;0.60;;;12.50;99.90;;;;;;5093789;28;20062;-76
2023/04/01 09:31:04;;;;;;;0.68;0.38;;;12.50;99.90;;;;;;5093853;28;20490;-76
2023/04/01 09:34:00;;;;;;;1.52;0.50;;;12.50;99.90;;;;;;5093488;28;20031;-76
2023/04/01 09:37:03;;;;;;;1.88;0.43;;;12.50;99.90;;;;;;5093024;28;20048;-76
2023/04/01 09:39:37;;;;;;;2.05;0.57;;;12.50;99.90;;;;;;5075151;28;20024;-77
2023/04/01 09:42:21;;;;;;;1.38;0.52;;;12.60;99.90;;;;;;5075504;28;20510;-76
2023/04/01 09:44:52;;;;;;;1.52;0.60;;;12.50;99.90;;;;;;5075108;28;20024;-77
2023/04/01 09:47:40;;;;;;;1.45;0.93;;;12.50;99.90;;;;;;5093675;28;20050;-76
2023/04/01 09:50:23;;;;;;;1.00;0.50;;;12.50;99.90;;;;;;5075475;28;20346;-76
2023/04/01 09:53:01;;;;;;;1.15;0.73;;;12.40;99.90;;;;;;5093392;28;20024;-76
2023/04/01 09:56:04;;;;;;;1.33;0.63;;;12.40;99.90;;;;;;5093486;28;20036;-76
2023/04/01 09:59:19;;;;;;;1.75;0.77;;;12.40;99.90;;;;;;5093227;28;20024;-76
2023/04/01 10:02:12;;;;;;;1.02;0.60;;;12.40;99.90;;;;;;5053631;28;20032;-77
2023/04/01 10:05:11;;;;;;;1.10;0.85;;;12.40;99.90;;;;;;5097039;28;20028;-75
2023/04/01 10:08:15;;;;;;;1.92;0.60;;;12.40;99.90;;;;;;5078703;28;20059;-77
2023/04/01 10:10:59;;;;;;;2.05;1.50;;;12.40;99.90;;;;;;5096706;28;20032;-75
2023/04/01 10:13:46;;;;;;;1.58;1.05;;;12.40;99.90;;;;;;5096723;28;20035;-76
2023/04/01 10:16:33;;;;;;;2.33;1.55;;;12.40;99.90;;;;;;5096539;28;20376;-77
2023/04/01 10:19:23;;;;;;;2.05;1.50;;;12.40;99.90;;;;;;5096745;28;20028;-76
2023/04/01 10:22:05;;;;;;;2.35;1.88;;;12.40;99.90;;;;;;5096268;28;20448;-76
2023/04/01 10:24:36;;;;;;;2.22;1.85;;;12.40;99.90;;;;;;5078036;28;20397;-76
2023/04/01 10:27:39;;;;;;;3.92;2.53;;;12.50;99.90;;;;;;5078278;28;20133;-75
2023/04/01 10:30:21;;;;;;;4.05;2.60;;;12.50;99.90;;;;;;5096195;28;20024;-76
2023/04/01 10:32:53;;;;;;;4.10;2.60;;;12.50;99.90;;;;;;5078787;28;20028;-76
2023/04/01 10:35:25;;;;;;;4.27;2.30;;;12.50;99.90;;;;;;5077939;28;20384;-77
2023/04/01 10:38:18;;;;;;;3.63;2.42;;;12.50;99.90;;;;;;5077966;28;20119;-77
2023/04/01 10:41:09;;;;;;;3.67;2.95;;;12.50;99.90;;;;;;5078050;28;20140;-78
2023/04/01 10:43:59;;;;;;;3.88;2.90;;;12.60;99.90;;;;;;5078334;28;20020;-81
2023/04/01 10:46:52;;;;;;;4.30;3.72;;;12.60;99.90;;;;;;5096287;28;20028;-79
2023/04/01 10:49:43;;;;;;;4.97;4.20;;;12.70;99.90;;;;;;5096446;28;20457;-80
2023/04/01 10:52:41;;;;;;;5.78;4.95;;;12.60;99.90;;;;;;5078306;28;20036;-75
2023/04/01 10:55:25;;;;;;;7.13;5.40;;;12.70;99.90;;;;;;5039998;28;20172;-76
2023/04/01 10:58:11;;;;;;;7.40;6.13;;;12.60;99.90;;;;;;5096253;28;20024;-76
2023/04/01 11:01:04;;;;;;;7.35;6.07;;;12.60;99.90;;;;;;5095889;28;20466;-77
2023/04/01 11:03:51;;;;;;;8.75;6.10;;;12.70;99.90;;;;;;5095875;28;20371;-76
2023/04/01 11:06:35;;;;;;;7.57;6.18;;;12.70;99.90;;;;;;5096105;28;20020;-75
2023/04/01 11:09:30;;;;;;;8.10;6.13;;;12.70;99.90;;;;;;5095569;28;20024;-79
2023/04/01 11:12:38;;;;;;;8.45;6.72;;;12.70;99.90;;;;;;5095423;28;20051;-76
2023/04/01 11:15:22;;;;;;;5.82;5.25;;;12.80;99.90;;;;;;5081943;28;20048;-77
2023/04/01 11:18:25;;;;;;;8.15;5.15;;;12.80;99.90;;;;;;5095152;28;20028;-77
2023/04/01 11:21:26;;;;;;;6.65;4.50;;;12.80;99.90;;;;;;5095376;28;20021;-75
2023/04/01 11:24:05;;;;;;;4.15;3.75;;;12.90;99.90;;;;;;5077032;28;20035;-75
2023/04/01 11:26:31;;;;;;;4.50;3.85;;;12.90;99.90;;;;;;5095106;28;20024;-80
2023/04/01 11:29:31;;;;;;;2.50;1.83;;;12.90;99.90;;;;;;5095187;28;20081;-76
2023/04/01 11:32:31;;;;;;;0.65;0.40;;;12.90;99.90;;;;;;5077066;28;20082;-74
2023/04/01 11:35:15;;;;;;;1.35;0.30;;;12.70;99.90;;;;;;5077078;28;20036;-74
2023/04/01 11:37:58;;;;;;;1.15;0.40;;;12.70;99.90;;;;;;5095223;28;20069;-76
2023/04/01 11:40:51;;;;;;;1.15;0.30;;;12.70;99.90;;;;;;5077366;28;20035;-75
2023/04/01 11:43:33;;;;;;;0.90;0.50;;;12.80;99.90;;;;;;5077453;28;20390;-78
2023/04/01 11:46:09;;;;;;;0.80;0.60;;;12.80;99.90;;;;;;5094582;28;20028;-74
2023/04/01 11:49:25;;;;;;;0.88;0.45;;;12.80;99.90;;;;;;5077267;28;20475;-78
2023/04/01 11:52:05;;;;;;;0.85;0.40;;;12.70;99.90;;;;;;5095106;28;20558;-75
2023/04/01 11:55:01;;;;;;;0.60;0.40;;;12.70;99.90;;;;;;5094629;28;20050;-75
2023/04/01 11:57:29;;;;;;;0.70;0.30;;;12.70;99.90;;;;;;5090146;28;20456;-75
2023/04/01 12:00:06;;;;;;;0.50;0.30;;;12.80;99.90;;;;;;5076373;28;20043;-76
2023/04/01 12:03:00;;;;;;;1.20;0.40;;;12.70;99.90;;;;;;5095013;28;20043;-76
2023/04/01 12:06:01;;;;;;;0.57;0.30;;;12.70;99.90;;;;;;5099695;28;20115;-77
2023/04/01 12:08:36;;;;;;;0.68;0.40;;;12.70;99.90;;;;;;5113999;28;20012;-77
2023/04/01 12:11:19;;;;;;;1.48;0.50;;;12.70;99.90;;;;;;5114603;28;20027;-75
2023/04/01 12:13:59;;;;;;;1.15;0.40;;;12.60;99.90;;;;;;5095520;28;20050;-76
2023/04/01 12:16:49;;;;;;;0.85;0.40;;;12.60;99.90;;;;;;5098039;28;20028;-76
2023/04/01 12:19:24;;;;;;;0.80;0.40;;;12.60;99.90;;;;;;5094235;28;20453;-77
2023/04/01 12:22:10;;;;;;;0.68;0.45;;;12.60;99.90;;;;;;5076625;28;20028;-77
2023/04/01 12:25:07;;;;;;;0.98;0.38;;;12.60;99.90;;;;;;5094414;28;20032;-84
2023/04/01 12:27:45;;;;;;;1.63;0.75;;;12.60;99.90;;;;;;5094750;28;20038;-83
2023/04/01 12:30:40;;;;;;;1.13;0.60;;;12.60;99.90;;;;;;5102756;28;20004;-76
2023/04/01 12:33:24;;;;;;;0.70;0.43;;;12.60;99.90;;;;;;5111209;28;20070;-77
2023/04/01 12:36:23;;;;;;;1.42;0.70;;;12.70;99.90;;;;;;5081805;28;20121;-76
2023/04/01 12:39:24;;;;;;;3.38;0.60;;;12.70;99.90;;;;;;5093239;28;20028;-74
2023/04/01 12:42:04;;;;;;;1.98;1.25;;;12.70;99.90;;;;;;5093513;28;20028;-75
2023/04/01 12:44:30;;;;;;;3.15;0.75;;;12.80;99.90;;;;;;5093111;28;20123;-76
2023/04/01 12:47:18;;;;;;;1.98;0.73;;;12.80;99.90;;;;;;5092926;28;20072;-74
2023/04/01 12:50:00;;;;;;;1.38;0.90;;;12.80;99.90;;;;;;5075406;28;20050;-80
2023/04/01 12:52:48;;;;;;;2.33;0.73;;;12.80;99.90;;;;;;5093112;28;20464;-79
2023/04/01 12:55:35;;;;;;;1.92;0.82;;;12.80;99.90;;;;;;5093277;28;20028;-80
2023/04/01 12:58:20;;;;;;;1.38;0.88;;;12.80;99.90;;;;;;5094180;28;20081;-80
2023/04/01 13:01:04;;;;;;;1.45;1.05;;;12.90;99.90;;;;;;5093024;28;20024;-77
2023/04/01 13:03:47;;;;;;;2.22;1.27;;;12.90;99.90;;;;;;5093547;28;20029;-77
2023/04/01 13:06:27;;;;;;;1.63;1.02;;;12.90;99.90;;;;;;5093022;28;20028;-77
2023/04/01 13:09:04;;;;;;;2.85;1.05;;;13.00;99.90;;;;;;5093012;28;20031;-77
2023/04/01 13:11:54;;;;;;;1.08;0.80;;;13.00;99.90;;;;;;5093502;28;20069;-75
2023/04/01 13:15:17;;;;;;;3.58;0.80;;;13.00;99.90;;;;;;5074918;28;20039;-76
2023/04/01 13:17:46;;;;;;;2.57;1.30;;;13.10;99.90;;;;;;4991293;28;20109;-76
2023/04/01 13:20:47;;;;;;;2.42;1.00;;;13.10;99.90;;;;;;4991217;28;20108;-77
2023/04/01 13:23:37;;;;;;;1.67;1.25;;;13.20;99.90;;;;;;5064895;28;20032;-77
2023/04/01 13:26:41;;;;;;;1.75;1.10;;;13.30;99.90;;;;;;5092891;28;20051;-76
2023/04/01 13:29:18;;;;;;;3.20;1.10;;;13.30;99.90;;;;;;5075592;28;20028;-76
2023/04/01 13:31:55;;;;;;;2.42;1.42;;;13.30;99.90;;;;;;5092856;28;20062;-76
2023/04/01 13:34:38;;;;;;;1.30;1.15;;;13.40;99.90;;;;;;5075531;28;20124;-77